createdAt,value
2023-03-12T00:00:14.460Z,97871.39
2023-03-12T00:02:41.204Z,97876.55
2023-03-12T00:05:08.520Z,97877.64
2023-03-12T00:07:36.895Z,97887.09
2023-03-12T00:10:05.667Z,97891.00
2023-03-12T00:12:32.691Z,97893.90
2023-03-12T00:14:59.591Z,97894.16
2023-03-12T00:17:26.431Z,97894.86
2023-03-12T00:19:54.015Z,97897.19
2023-03-12T00:22:23.110Z,97895.64
2023-03-12T00:24:52.455Z,97898.65
2023-03-12T00:27:20.319Z,97893.51
2023-03-12T00:29:47.112Z,97897.51
2023-03-12T00:32:14.431Z,97893.02
2023-03-12T00:34:41.296Z,97898.39
2023-03-12T00:37:08.752Z,97904.90
2023-03-12T00:39:35.829Z,97902.52
2023-03-12T00:42:02.816Z,97903.23
2023-03-12T00:44:29.581Z,97905.58
2023-03-12T00:46:56.339Z,97907.20
2023-03-12T00:49:23.159Z,97909.70
2023-03-12T00:51:50.039Z,97907.63
2023-03-12T00:54:16.874Z,97905.39
2023-03-12T00:56:43.829Z,97907.41
2023-03-12T00:59:10.620Z,97910.86
2023-03-12T01:01:37.402Z,97916.10
2023-03-12T01:04:04.568Z,97917.15
2023-03-12T01:06:31.624Z,97916.07
2023-03-12T01:08:58.695Z,97920.11
2023-03-12T01:11:25.517Z,97920.11
2023-03-12T01:13:52.345Z,97917.46
2023-03-12T01:16:19.152Z,97913.66
2023-03-12T01:18:46.200Z,97914.52
2023-03-12T01:21:13.065Z,97913.97
2023-03-12T01:23:39.845Z,97915.00
2023-03-12T01:26:06.585Z,97913.86
2023-03-12T01:28:33.300Z,97906.23
2023-03-12T01:31:12.539Z,97900.90
2023-03-12T01:33:40.273Z,97899.34
2023-03-12T01:36:18.531Z,97902.67
2023-03-12T01:38:45.713Z,97905.02
2023-03-12T01:41:13.141Z,97909.65
2023-03-12T01:43:40.549Z,97910.49
2023-03-12T01:46:38.741Z,97912.86
2023-03-12T01:49:27.450Z,97915.21
2023-03-12T01:52:12.968Z,97916.67
2023-03-12T01:54:52.293Z,97916.85
2023-03-12T01:57:27.041Z,97920.77
2023-03-12T01:59:59.964Z,97921.77
2023-03-12T02:02:28.845Z,97929.16
2023-03-12T02:05:08.920Z,97928.63
2023-03-12T02:07:36.137Z,97931.76
2023-03-12T02:10:04.778Z,97937.23
2023-03-12T02:12:32.574Z,97938.23
2023-03-12T02:14:59.446Z,97945.71
2023-03-12T02:17:26.378Z,97945.91
2023-03-12T02:19:55.466Z,97944.52
2023-03-12T02:22:23.119Z,97951.00
2023-03-12T02:24:57.553Z,97945.73
2023-03-12T02:27:24.956Z,97950.55
2023-03-12T02:29:52.151Z,97953.48
2023-03-12T02:32:26.841Z,97955.39
2023-03-12T02:34:53.958Z,97954.70
2023-03-12T02:37:20.747Z,97956.66
2023-03-12T02:39:57.659Z,97961.73
2023-03-12T02:42:25.076Z,97961.69
2023-03-12T02:44:52.591Z,97967.25
2023-03-12T02:47:19.450Z,97969.66
2023-03-12T02:49:46.639Z,97974.52
2023-03-12T02:52:13.450Z,97978.30
2023-03-12T02:54:40.371Z,97984.92
2023-03-12T02:57:07.131Z,97983.36
2023-03-12T02:59:34.525Z,97985.48
2023-03-12T03:02:02.235Z,97987.27
2023-03-12T03:04:31.084Z,97989.73
2023-03-12T03:06:58.035Z,97990.27
2023-03-12T03:09:25.340Z,97992.06
2023-03-12T03:11:52.897Z,97997.76
2023-03-12T03:14:20.060Z,98002.13
2023-03-12T03:16:48.349Z,98005.11
2023-03-12T03:19:15.169Z,98008.70
2023-03-12T03:21:41.972Z,98010.02
2023-03-12T03:24:08.781Z,98012.27
2023-03-12T03:26:35.822Z,98019.70
2023-03-12T03:29:03.092Z,98023.68
2023-03-12T03:31:30.083Z,98025.70
2023-03-12T03:33:57.293Z,98031.23
2023-03-12T03:36:24.099Z,98035.21
2023-03-12T03:38:59.654Z,98037.73
2023-03-12T03:41:27.076Z,98036.48
2023-03-12T03:43:58.556Z,98041.71
2023-03-12T03:46:26.803Z,98039.80
2023-03-12T03:48:58.898Z,98048.93
2023-03-12T03:51:26.955Z,98050.95
2023-03-12T03:53:56.348Z,98050.48
2023-03-12T03:56:23.276Z,98058.20
2023-03-12T03:58:50.232Z,98058.86
2023-03-12T04:01:18.426Z,98061.95
2023-03-12T04:03:45.755Z,98058.52
2023-03-12T04:06:13.104Z,98059.57
2023-03-12T04:08:40.971Z,98062.67
2023-03-12T04:11:14.944Z,98060.13
2023-03-12T04:13:41.968Z,98060.85
2023-03-12T04:16:10.310Z,98058.51
2023-03-12T04:18:37.711Z,98059.66
2023-03-12T04:21:07.308Z,98058.53
2023-03-12T04:23:34.673Z,98057.61
2023-03-12T04:26:01.691Z,98058.02
2023-03-12T04:28:28.975Z,98062.27
2023-03-12T04:31:01.728Z,98062.08
2023-03-12T04:33:39.799Z,98062.05
2023-03-12T04:36:08.027Z,98067.05
2023-03-12T04:38:36.068Z,98066.04
2023-03-12T04:41:08.086Z,98071.64
2023-03-12T04:43:37.137Z,98071.67
2023-03-12T04:46:05.275Z,98070.70
2023-03-12T04:48:34.208Z,98068.69
2023-03-12T04:51:03.267Z,98070.46
2023-03-12T04:53:30.264Z,98077.52
2023-03-12T04:55:57.807Z,98076.77
2023-03-12T04:58:24.634Z,98081.81
2023-03-12T05:00:51.874Z,98087.09
2023-03-12T05:03:19.186Z,98089.63
2023-03-12T05:05:46.147Z,98087.25
2023-03-12T05:08:13.444Z,98088.40
2023-03-12T05:10:45.235Z,98087.47
2023-03-12T05:13:22.750Z,98096.02
2023-03-12T05:15:52.240Z,98094.06
2023-03-12T05:18:21.531Z,98096.14
2023-03-12T05:20:59.585Z,98098.68
2023-03-12T05:23:26.572Z,98106.09
2023-03-12T05:25:53.921Z,98108.16
2023-03-12T05:28:21.711Z,98108.52
2023-03-12T05:30:48.749Z,98111.15
2023-03-12T05:33:15.706Z,98115.20
2023-03-12T05:35:42.566Z,98119.57
2023-03-12T05:38:09.374Z,98119.65
2023-03-12T05:40:36.213Z,98117.74
2023-03-12T05:43:03.466Z,98124.47
2023-03-12T05:45:30.581Z,98125.91
2023-03-12T05:47:58.916Z,98123.88
2023-03-12T05:50:27.720Z,98126.44
2023-03-12T05:52:54.912Z,98129.58
2023-03-12T05:55:21.766Z,98126.73
2023-03-12T05:57:48.772Z,98129.45
2023-03-12T06:00:16.465Z,98124.48
2023-03-12T06:02:48.521Z,98131.08
2023-03-12T06:05:15.544Z,98133.63
2023-03-12T06:07:42.499Z,98136.23
2023-03-12T06:10:10.141Z,98139.98
2023-03-12T06:12:37.336Z,98137.65
2023-03-12T06:15:05.452Z,98138.70
2023-03-12T06:17:32.487Z,98145.61
2023-03-12T06:19:59.721Z,98150.00
2023-03-12T06:22:27.712Z,98150.31
2023-03-12T06:24:55.206Z,98148.60
2023-03-12T06:27:23.902Z,98151.24
2023-03-12T06:29:51.590Z,98157.56
2023-03-12T06:32:18.623Z,98162.35
2023-03-12T06:34:45.628Z,98162.55
2023-03-12T06:37:12.403Z,98165.03
2023-03-12T06:39:39.286Z,98167.70
2023-03-12T06:42:06.193Z,98169.55
2023-03-12T06:44:33.321Z,98169.80
2023-03-12T06:47:00.143Z,98174.92
2023-03-12T06:49:27.509Z,98176.84
2023-03-12T06:51:56.052Z,98176.35
2023-03-12T06:54:22.841Z,98180.80
2023-03-12T06:56:49.620Z,98181.31
2023-03-12T06:59:16.384Z,98182.56
2023-03-12T07:01:43.396Z,98180.20
2023-03-12T07:04:10.196Z,98178.30
2023-03-12T07:06:36.955Z,98183.08
2023-03-12T07:09:05.107Z,98179.70
2023-03-12T07:11:32.011Z,98176.94
2023-03-12T07:13:58.886Z,98180.73
2023-03-12T07:16:25.687Z,98181.88
2023-03-12T07:18:52.499Z,98179.98
2023-03-12T07:21:24.014Z,98185.99
2023-03-12T07:23:51.583Z,98179.39
2023-03-12T07:26:19.045Z,98171.09
2023-03-12T07:28:46.151Z,98175.86
2023-03-12T07:31:13.064Z,98175.15
2023-03-12T07:33:40.013Z,98173.78
2023-03-12T07:36:07.601Z,98177.56
2023-03-12T07:38:34.402Z,98180.10
2023-03-12T07:41:01.353Z,98181.81
2023-03-12T07:43:28.254Z,98184.84
2023-03-12T07:45:55.501Z,98188.64
2023-03-12T07:48:22.411Z,98190.17
2023-03-12T07:50:49.231Z,98187.55
2023-03-12T07:53:17.037Z,98180.10
2023-03-12T07:55:46.479Z,98182.05
2023-03-12T07:58:15.671Z,98175.20
2023-03-12T08:00:42.675Z,98174.99
2023-03-12T08:03:09.657Z,98172.98
2023-03-12T08:05:36.861Z,98170.57
2023-03-12T08:08:04.113Z,98174.70
2023-03-12T08:10:31.187Z,98167.37
2023-03-12T08:12:58.105Z,98163.44
2023-03-12T08:15:25.418Z,98165.61
2023-03-12T08:17:52.287Z,98171.77
2023-03-12T08:20:19.114Z,98175.38
2023-03-12T08:22:45.835Z,98174.80
2023-03-12T08:25:13.302Z,98178.65
2023-03-12T08:27:40.096Z,98185.94
2023-03-12T08:30:08.096Z,98190.15
2023-03-12T08:32:36.230Z,98190.38
2023-03-12T08:35:05.384Z,98195.79
2023-03-12T08:37:33.010Z,98195.16
2023-03-12T08:40:00.279Z,98197.06
2023-03-12T08:42:27.173Z,98192.61
2023-03-12T08:44:54.006Z,98195.98
2023-03-12T08:47:20.785Z,98191.77
2023-03-12T08:49:47.731Z,98195.28
2023-03-12T08:52:14.515Z,98194.59
2023-03-12T08:54:41.364Z,98190.67
2023-03-12T08:57:08.315Z,98188.80
2023-03-12T08:59:35.201Z,98188.55
2023-03-12T09:02:01.950Z,98192.30
2023-03-12T09:04:28.909Z,98198.64
2023-03-12T09:06:55.790Z,98201.23
2023-03-12T09:09:22.654Z,98203.02
2023-03-12T09:11:49.448Z,98205.11
2023-03-12T09:15:16.475Z,98202.09
2023-03-12T09:17:03.393Z,98207.55
2023-03-12T09:19:30.164Z,98213.80
2023-03-12T09:21:57.757Z,98212.16
2023-03-12T09:24:24.717Z,98212.14
2023-03-12T09:26:51.484Z,98208.66
2023-03-12T09:29:18.285Z,98210.86
2023-03-12T09:31:45.018Z,98202.83
2023-03-12T09:34:11.840Z,98207.64
2023-03-12T09:36:38.751Z,98207.39
2023-03-12T09:39:05.998Z,98203.70
2023-03-12T09:41:37.847Z,98204.70
2023-03-12T09:44:10.285Z,98202.29
2023-03-12T09:46:45.266Z,98203.55
2023-03-12T09:49:19.524Z,98197.05
2023-03-12T09:51:51.740Z,98196.67
2023-03-12T09:54:39.593Z,98199.52
2023-03-12T09:57:13.093Z,98189.88
2023-03-12T09:59:39.917Z,98194.55
2023-03-12T10:02:29.227Z,98193.26
2023-03-12T10:05:02.015Z,98191.56
2023-03-12T10:07:45.532Z,98195.28
2023-03-12T10:10:27.806Z,98196.18
2023-03-12T10:12:54.553Z,98200.20
2023-03-12T10:15:36.982Z,98196.92
2023-03-12T10:18:08.214Z,98200.41
2023-03-12T10:20:53.893Z,98195.02
2023-03-12T10:23:33.029Z,98193.32
2023-03-12T10:26:14.813Z,98193.11
2023-03-12T10:28:44.201Z,98186.27
2023-03-12T10:31:21.750Z,98188.54
2023-03-12T10:33:54.464Z,98186.43
2023-03-12T10:36:26.309Z,98184.52
2023-03-12T10:38:53.049Z,98191.61
2023-03-12T10:41:24.098Z,98189.00
2023-03-12T10:43:51.343Z,98192.09
2023-03-12T10:46:34.703Z,98197.70
2023-03-12T10:49:25.948Z,98188.48
2023-03-12T10:51:55.502Z,98196.25
2023-03-12T10:54:30.742Z,98193.15
2023-03-12T10:56:57.708Z,98190.03
2023-03-12T10:59:29.562Z,98187.02
2023-03-12T11:01:57.124Z,98188.05
2023-03-12T11:04:30.283Z,98190.04
2023-03-12T11:07:12.478Z,98189.16
2023-03-12T11:09:39.354Z,98189.20
2023-03-12T11:12:24.486Z,98188.14
2023-03-12T11:14:51.449Z,98192.48
2023-03-12T11:17:22.746Z,98188.42
2023-03-12T11:19:49.517Z,98194.56
2023-03-12T11:22:29.926Z,98196.96
2023-03-12T11:24:59.716Z,98192.34
2023-03-12T11:27:38.081Z,98193.74
2023-03-12T11:30:07.460Z,98198.69
2023-03-12T11:32:45.914Z,98194.55
2023-03-12T11:35:16.069Z,98194.77
2023-03-12T11:37:59.183Z,98194.81
2023-03-12T11:40:46.121Z,98199.77
2023-03-12T11:43:43.896Z,98198.58
2023-03-12T11:46:22.941Z,98203.55
2023-03-12T11:49:02.292Z,98187.06
2023-03-12T11:51:33.548Z,98186.88
2023-03-12T11:54:15.820Z,98175.25
2023-03-12T11:56:51.683Z,98178.67
2023-03-12T11:59:41.514Z,98179.34
2023-03-12T12:02:38.968Z,98178.02
2023-03-12T12:05:29.439Z,98181.27
2023-03-12T12:08:16.111Z,98180.02
2023-03-12T12:10:46.359Z,98175.56
2023-03-12T12:13:18.079Z,98177.71
2023-03-12T12:15:53.022Z,98175.83
2023-03-12T12:18:38.193Z,98177.61
2023-03-12T12:21:27.680Z,98184.55
2023-03-12T12:24:10.300Z,98180.05
2023-03-12T12:26:56.078Z,98179.16
2023-03-12T12:29:45.757Z,98176.37
2023-03-12T12:32:19.449Z,98173.23
2023-03-12T12:35:01.677Z,98178.80
2023-03-12T12:37:46.149Z,98188.06
2023-03-12T12:40:31.430Z,98191.09
2023-03-12T12:43:07.568Z,98194.60
2023-03-12T12:45:40.524Z,98188.54
2023-03-12T12:48:17.911Z,98190.56
2023-03-12T12:50:48.090Z,98179.98
2023-03-12T12:53:23.180Z,98179.41
2023-03-12T12:56:00.887Z,98183.57
2023-03-12T12:58:31.034Z,98182.72
2023-03-12T13:01:00.798Z,98180.55
2023-03-12T13:03:29.449Z,98179.14
2023-03-12T13:05:59.021Z,98182.58
2023-03-12T13:08:43.183Z,98185.11
2023-03-12T13:11:18.697Z,98189.42
2023-03-12T13:13:51.653Z,98189.03
2023-03-12T13:16:35.014Z,98180.38
2023-03-12T13:19:16.442Z,98183.11
2023-03-12T13:21:54.388Z,98180.08
2023-03-12T13:24:29.918Z,98182.20
2023-03-12T13:27:15.211Z,98181.96
2023-03-12T13:29:42.843Z,98179.52
2023-03-12T13:32:37.249Z,98181.27
2023-03-12T13:35:11.875Z,98175.20
2023-03-12T13:37:54.071Z,98179.92
2023-03-12T13:40:34.229Z,98184.95
2023-03-12T13:43:11.699Z,98192.94
2023-03-12T13:45:57.566Z,98190.16
2023-03-12T13:48:25.037Z,98189.61
2023-03-12T13:50:58.026Z,98189.27
2023-03-12T13:53:35.767Z,98186.23
2023-03-12T13:56:22.201Z,98187.66
2023-03-12T13:59:05.644Z,98187.09
2023-03-12T14:01:40.706Z,98186.88
2023-03-12T14:04:20.665Z,98193.61
2023-03-12T14:07:09.991Z,98195.91
2023-03-12T14:09:50.020Z,98193.45
2023-03-12T14:12:25.601Z,98199.83
2023-03-12T14:15:08.979Z,98203.17
2023-03-12T14:17:38.248Z,98201.84
2023-03-12T14:20:13.927Z,98205.86
2023-03-12T14:22:45.005Z,98205.40
2023-03-12T14:25:26.270Z,98204.19
2023-03-12T14:27:53.634Z,98200.36
2023-03-12T14:30:20.593Z,98210.42
2023-03-12T14:32:49.930Z,98216.22
2023-03-12T14:35:22.216Z,98210.48
2023-03-12T14:38:07.295Z,98212.23
2023-03-12T14:40:38.814Z,98208.44
2023-03-12T14:43:23.455Z,98212.40
2023-03-12T14:45:52.373Z,98216.30
2023-03-12T14:48:23.928Z,98221.18
2023-03-12T14:50:50.898Z,98226.13
2023-03-12T14:53:29.909Z,98230.22
2023-03-12T14:56:13.758Z,98226.54
2023-03-12T14:58:47.344Z,98225.26
2023-03-12T15:01:19.355Z,98226.50
2023-03-12T15:03:51.295Z,98224.74
2023-03-12T15:06:25.653Z,98220.23
2023-03-12T15:08:52.741Z,98220.92
2023-03-12T15:11:24.358Z,98218.42
2023-03-12T15:13:53.540Z,98218.32
2023-03-12T15:16:22.043Z,98213.75
2023-03-12T15:18:50.437Z,98214.32
2023-03-12T15:21:18.105Z,98212.20
2023-03-12T15:23:47.738Z,98207.89
2023-03-12T15:26:22.002Z,98216.66
2023-03-12T15:28:59.236Z,98222.23
2023-03-12T15:31:26.563Z,98221.37
2023-03-12T15:34:03.980Z,98223.15
2023-03-12T15:36:33.573Z,98223.26
2023-03-12T15:39:05.800Z,98215.92
2023-03-12T15:41:43.538Z,98214.61
2023-03-12T15:44:19.960Z,98212.08
2023-03-12T15:46:49.400Z,98214.98
2023-03-12T15:49:25.375Z,98221.10
2023-03-12T15:51:59.887Z,98216.08
2023-03-12T15:54:29.445Z,98210.73
2023-03-12T15:57:18.182Z,98226.80
2023-03-12T15:59:45.002Z,98225.78
2023-03-12T16:02:13.140Z,98224.29
2023-03-12T16:04:40.132Z,98222.51
2023-03-12T16:07:12.194Z,98227.90
2023-03-12T16:09:39.039Z,98235.38
2023-03-12T16:12:06.177Z,98238.30
2023-03-12T16:14:37.101Z,98234.75
2023-03-12T16:17:03.902Z,98237.91
2023-03-12T16:19:33.979Z,98237.14
2023-03-12T16:22:00.946Z,98233.63
2023-03-12T16:24:27.724Z,98228.44
2023-03-12T16:26:58.301Z,98224.77
2023-03-12T16:29:38.557Z,98229.73
2023-03-12T16:32:15.899Z,98231.50
2023-03-12T16:34:44.964Z,98236.48
2023-03-12T16:37:13.020Z,98236.80
2023-03-12T16:39:40.229Z,98240.75
2023-03-12T16:42:15.798Z,98245.73
2023-03-12T16:44:46.048Z,98249.13
2023-03-12T16:47:14.501Z,98250.20
2023-03-12T16:49:41.583Z,98258.30
2023-03-12T16:52:19.051Z,98253.64
2023-03-12T16:54:45.971Z,98255.40
2023-03-12T16:57:19.505Z,98257.91
2023-03-12T16:59:46.360Z,98263.88
2023-03-12T17:02:16.770Z,98263.45
2023-03-12T17:04:43.697Z,98261.48
2023-03-12T17:07:10.682Z,98263.74
2023-03-12T17:09:37.708Z,98253.75
2023-03-12T17:12:04.621Z,98246.08
2023-03-12T17:14:31.813Z,98245.84
2023-03-12T17:16:58.601Z,98250.67
2023-03-12T17:19:25.404Z,98250.30
2023-03-12T17:21:52.660Z,98237.07
2023-03-12T17:24:19.563Z,98238.02
2023-03-12T17:26:46.591Z,98236.11
2023-03-12T17:29:15.702Z,98219.64
2023-03-12T17:31:42.536Z,98218.90
2023-03-12T17:34:09.746Z,98223.27
2023-03-12T17:36:38.018Z,98229.55
2023-03-12T17:39:05.129Z,98228.70
2023-03-12T17:41:33.292Z,98232.42
2023-03-12T17:44:02.200Z,98231.11
2023-03-12T17:46:30.787Z,98226.41
2023-03-12T17:48:57.652Z,98224.55
2023-03-12T17:51:24.813Z,98228.21
2023-03-12T17:53:51.581Z,98231.30
2023-03-12T17:56:18.528Z,98229.86
2023-03-12T17:58:45.691Z,98231.94
2023-03-12T18:01:13.618Z,98233.59
2023-03-12T18:03:40.813Z,98226.64
2023-03-12T18:06:07.629Z,98218.74
2023-03-12T18:08:34.420Z,98218.59
2023-03-12T18:11:03.034Z,98221.20
2023-03-12T18:13:30.751Z,98215.73
2023-03-12T18:15:58.980Z,98210.10
2023-03-12T18:18:26.786Z,98208.92
2023-03-12T18:20:54.362Z,98208.83
2023-03-12T18:23:21.241Z,98204.70
2023-03-12T18:25:47.976Z,98209.15
2023-03-12T18:28:15.412Z,98212.30
2023-03-12T18:30:44.972Z,98211.17
2023-03-12T18:33:11.818Z,98215.41
2023-03-12T18:35:38.718Z,98221.00
2023-03-12T18:38:05.806Z,98223.04
2023-03-12T18:40:33.216Z,98219.84
2023-03-12T18:43:00.672Z,98216.13
2023-03-12T18:45:28.078Z,98223.18
2023-03-12T18:47:54.977Z,98226.20
2023-03-12T18:50:22.536Z,98230.76
2023-03-12T18:52:49.324Z,98230.45
2023-03-12T18:55:16.315Z,98225.69
2023-03-12T18:57:44.671Z,98204.54
2023-03-12T19:00:14.682Z,98187.78
2023-03-12T19:02:57.634Z,98194.03
2023-03-12T19:05:24.408Z,98195.21
2023-03-12T19:07:51.521Z,98208.38
2023-03-12T19:10:18.510Z,98208.48
2023-03-12T19:12:52.670Z,98212.34
2023-03-12T19:15:21.884Z,98207.34
2023-03-12T19:17:48.699Z,98208.89
2023-03-12T19:20:15.870Z,98211.81
2023-03-12T19:22:42.669Z,98216.69
2023-03-12T19:25:09.646Z,98213.30
2023-03-12T19:27:36.423Z,98203.85
2023-03-12T19:30:04.110Z,98199.65
2023-03-12T19:32:42.269Z,98198.50
2023-03-12T19:35:11.333Z,98203.98
2023-03-12T19:37:38.176Z,98206.42
2023-03-12T19:40:05.942Z,98206.58
2023-03-12T19:42:32.818Z,98202.77
2023-03-12T19:44:59.701Z,98201.42
2023-03-12T19:47:26.846Z,98203.36
2023-03-12T19:49:53.985Z,98209.27
2023-03-12T19:52:20.782Z,98206.30
2023-03-12T19:55:01.459Z,98201.79
2023-03-12T19:57:31.702Z,98198.19
2023-03-12T19:59:58.576Z,98191.84
2023-03-12T20:02:26.363Z,98194.84
2023-03-12T20:04:53.299Z,98197.73
2023-03-12T20:07:20.027Z,98191.22
2023-03-12T20:09:46.865Z,98188.81
2023-03-12T20:12:13.700Z,98183.46
2023-03-12T20:14:42.650Z,98181.97
2023-03-12T20:17:11.554Z,98177.77
2023-03-12T20:19:39.005Z,98174.23
2023-03-12T20:22:06.981Z,98169.34
2023-03-12T20:24:34.158Z,98164.20
2023-03-12T20:27:01.673Z,98167.63
2023-03-12T20:29:28.469Z,98159.04
2023-03-12T20:31:55.330Z,98154.67
2023-03-12T20:34:22.573Z,98153.48
2023-03-12T20:36:51.833Z,98152.27
2023-03-12T20:39:18.622Z,98145.67
2023-03-12T20:41:45.364Z,98143.83
2023-03-12T20:44:12.221Z,98133.90
2023-03-12T20:46:38.989Z,98128.65
2023-03-12T20:49:05.938Z,98125.58
2023-03-12T20:51:32.700Z,98131.30
2023-03-12T20:53:59.445Z,98125.32
2023-03-12T20:56:26.326Z,98121.90
2023-03-12T20:58:53.993Z,98120.86
2023-03-12T21:01:20.892Z,98112.79
2023-03-12T21:03:47.842Z,98114.09
2023-03-12T21:06:14.661Z,98116.93
2023-03-12T21:08:41.374Z,98125.58
2023-03-12T21:11:08.809Z,98121.04
2023-03-12T21:13:36.399Z,98119.31
2023-03-12T21:16:05.653Z,98119.41
2023-03-12T21:18:32.610Z,98113.57
2023-03-12T21:21:04.677Z,98106.52
2023-03-12T21:23:32.467Z,98099.58
2023-03-12T21:26:01.982Z,98094.23
2023-03-12T21:28:29.325Z,98092.61
2023-03-12T21:30:56.368Z,98091.48
2023-03-12T21:33:23.174Z,98096.36
2023-03-12T21:35:51.988Z,98098.02
2023-03-12T21:38:19.458Z,98101.58
2023-03-12T21:40:47.316Z,98098.39
2023-03-12T21:43:14.053Z,98097.52
2023-03-12T21:45:42.698Z,98103.31
2023-03-12T21:48:09.643Z,98104.67
2023-03-12T21:50:36.387Z,98100.84
2023-03-12T21:53:06.894Z,98100.36
2023-03-12T21:55:41.268Z,98094.55
2023-03-12T21:58:08.316Z,98086.04
2023-03-12T22:00:35.117Z,98083.90
2023-03-12T22:03:01.948Z,98083.98
2023-03-12T22:05:28.710Z,98074.77
2023-03-12T22:07:55.501Z,98073.38
2023-03-12T22:10:22.327Z,98078.36
2023-03-12T22:12:49.121Z,98073.30
2023-03-12T22:15:16.029Z,98074.04
2023-03-12T22:17:42.942Z,98069.41
2023-03-12T22:20:10.661Z,98064.02
2023-03-12T22:22:37.497Z,98060.11
2023-03-12T22:25:04.640Z,98065.86
2023-03-12T22:27:31.390Z,98065.95
2023-03-12T22:29:58.132Z,98061.80
2023-03-12T22:32:25.859Z,98061.75
2023-03-12T22:34:52.647Z,98064.77
2023-03-12T22:37:19.402Z,98060.74
2023-03-12T22:39:46.200Z,98058.79
2023-03-12T22:42:12.966Z,98060.91
2023-03-12T22:44:41.475Z,98068.18
2023-03-12T22:47:08.696Z,98074.01
2023-03-12T22:49:35.819Z,98067.34
2023-03-12T22:52:02.627Z,98064.80
2023-03-12T22:54:29.385Z,98058.83
2023-03-12T22:56:56.100Z,98054.95
2023-03-12T22:59:22.867Z,98051.88
2023-03-12T23:01:49.689Z,98055.44
2023-03-12T23:04:16.586Z,98061.27
2023-03-12T23:06:44.218Z,98071.98
2023-03-12T23:09:11.233Z,98072.25
2023-03-12T23:11:38.954Z,98070.57
2023-03-12T23:14:05.775Z,98060.89
2023-03-12T23:16:32.627Z,98065.63
2023-03-12T23:19:00.396Z,98062.77
2023-03-12T23:21:27.239Z,98058.09
2023-03-12T23:23:54.305Z,98056.75
2023-03-12T23:26:24.052Z,98061.61
2023-03-12T23:28:53.368Z,98064.17
2023-03-12T23:31:21.357Z,98059.55
2023-03-12T23:33:48.212Z,98057.69
2023-03-12T23:36:18.891Z,98056.00
2023-03-12T23:38:47.068Z,98051.02
2023-03-12T23:41:16.854Z,98051.52
2023-03-12T23:43:44.204Z,98056.79
2023-03-12T23:46:12.133Z,98058.91
2023-03-12T23:48:40.100Z,98067.77
2023-03-12T23:51:09.889Z,98067.66
2023-03-12T23:53:37.778Z,98062.67
2023-03-12T23:56:08.112Z,98063.35
2023-03-12T23:58:35.952Z,98049.46
